sensor_id;sensor_type;location;lat;lon;timestamp;pressure;altitude;pressure_sealevel;temperature;humidity
69198;BME280;56311;50.298;8.514;2022-07-12T00:02:00;98569.13;;;13.11;97.89
69198;BME280;56311;50.298;8.514;2022-07-12T00:04:28;98572.47;;;13.03;97.80
69198;BME280;56311;50.298;8.514;2022-07-12T00:06:55;98580.06;;;13.01;98.75
69198;BME280;56311;50.298;8.514;2022-07-12T00:09:22;98578.19;;;13.01;98.38
69198;BME280;56311;50.298;8.514;2022-07-12T00:11:49;98579.28;;;13.00;98.21
69198;BME280;56311;50.298;8.514;2022-07-12T00:14:18;98574.38;;;13.02;98.50
69198;BME280;56311;50.298;8.514;2022-07-12T00:16:45;98575.75;;;13.00;99.14
69198;BME280;56311;50.298;8.514;2022-07-12T00:19:12;98571.97;;;12.96;99.64
69198;BME280;56311;50.298;8.514;2022-07-12T00:21:39;98569.53;;;12.94;100.00
69198;BME280;56311;50.298;8.514;2022-07-12T00:24:06;98571.72;;;12.92;99.97
69198;BME280;56311;50.298;8.514;2022-07-12T00:26:33;98572.81;;;12.91;100.00
69198;BME280;56311;50.298;8.514;2022-07-12T00:29:00;98567.97;;;12.88;100.00
69198;BME280;56311;50.298;8.514;2022-07-12T00:31:28;98567.72;;;12.84;99.71
69198;BME280;56311;50.298;8.514;2022-07-12T00:33:55;98572.91;;;12.81;99.84
69198;BME280;56311;50.298;8.514;2022-07-12T00:36:22;98570.75;;;12.78;100.00
69198;BME280;56311;50.298;8.514;2022-07-12T00:38:49;98566.41;;;12.77;100.00
69198;BME280;56311;50.298;8.514;2022-07-12T00:41:17;98567.78;;;12.74;100.00
69198;BME280;56311;50.298;8.514;2022-07-12T00:43:44;98562.34;;;12.74;100.00
69198;BME280;56311;50.298;8.514;2022-07-12T00:46:11;62402.38;;;-147.88;100.00
69198;BME280;56311;50.298;8.514;2022-07-12T00:48:42;62402.38;;;-147.88;100.00
69198;BME280;56311;50.298;8.514;2022-07-12T00:51:09;62402.38;;;-147.88;100.00
69198;BME280;56311;50.298;8.514;2022-07-12T00:53:36;62402.38;;;-147.88;100.00
69198;BME280;56311;50.298;8.514;2022-07-12T00:56:04;98543.19;;;12.55;100.00
69198;BME280;56311;50.298;8.514;2022-07-12T00:58:32;98542.16;;;12.51;100.00
69198;BME280;56311;50.298;8.514;2022-07-12T01:00:59;98544.56;;;12.52;100.00
69198;BME280;56311;50.298;8.514;2022-07-12T01:03:29;98545.44;;;12.42;100.00
69198;BME280;56311;50.298;8.514;2022-07-12T01:05:58;98540.03;;;12.42;100.00
69198;BME280;56311;50.298;8.514;2022-07-12T01:08:25;98549.22;;;12.47;100.00
69198;BME280;56311;50.298;8.514;2022-07-12T01:10:53;98543.28;;;12.39;100.00
69198;BME280;56311;50.298;8.514;2022-07-12T01:13:21;98541.97;;;12.32;100.00
69198;BME280;56311;50.298;8.514;2022-07-12T01:15:48;98541.44;;;12.30;100.00
69198;BME280;56311;50.298;8.514;2022-07-12T01:18:17;98533.88;;;12.26;100.00
69198;BME280;56311;50.298;8.514;2022-07-12T01:20:45;62402.38;;;-147.88;100.00
69198;BME280;56311;50.298;8.514;2022-07-12T01:23:13;62402.38;;;-147.88;100.00
69198;BME280;56311;50.298;8.514;2022-07-12T01:25:43;62402.38;;;-147.88;100.00
69198;BME280;56311;50.298;8.514;2022-07-12T01:28:10;62402.38;;;-147.88;100.00
69198;BME280;56311;50.298;8.514;2022-07-12T01:30:37;62402.38;;;-147.88;100.00
69198;BME280;56311;50.298;8.514;2022-07-12T01:33:04;62402.38;;;-147.88;100.00
69198;BME280;56311;50.298;8.514;2022-07-12T01:35:31;62402.38;;;-147.88;100.00
69198;BME280;56311;50.298;8.514;2022-07-12T01:37:59;62402.38;;;-147.88;100.00
69198;BME280;56311;50.298;8.514;2022-07-12T01:40:28;62402.38;;;-147.88;100.00
69198;BME280;56311;50.298;8.514;2022-07-12T01:42:55;62402.38;;;-147.88;100.00
69198;BME280;56311;50.298;8.514;2022-07-12T01:45:22;62402.38;;;-147.88;100.00
69198;BME280;56311;50.298;8.514;2022-07-12T01:47:49;62402.38;;;-147.88;100.00
69198;BME280;56311;50.298;8.514;2022-07-12T01:50:17;62402.38;;;-147.88;100.00
69198;BME280;56311;50.298;8.514;2022-07-12T01:52:44;62402.38;;;-147.88;100.00
69198;BME280;56311;50.298;8.514;2022-07-12T01:55:11;62402.38;;;-147.88;100.00
69198;BME280;56311;50.298;8.514;2022-07-12T01:57:41;62402.38;;;-147.88;100.00
69198;BME280;56311;50.298;8.514;2022-07-12T02:00:09;62402.38;;;-147.88;100.00
69198;BME280;56311;50.298;8.514;2022-07-12T02:02:36;62402.38;;;-147.88;100.00
69198;BME280;56311;50.298;8.514;2022-07-12T02:05:05;62402.38;;;-147.88;100.00
69198;BME280;56311;50.298;8.514;2022-07-12T02:07:33;62402.38;;;-147.88;100.00
69198;BME280;56311;50.298;8.514;2022-07-12T02:10:00;62402.38;;;-147.88;100.00
69198;BME280;56311;50.298;8.514;2022-07-12T02:12:27;62402.38;;;-147.88;100.00
69198;BME280;56311;50.298;8.514;2022-07-12T02:14:55;62402.38;;;-147.88;100.00
69198;BME280;56311;50.298;8.514;2022-07-12T02:17:22;62402.38;;;-147.88;100.00
69198;BME280;56311;50.298;8.514;2022-07-12T02:19:49;62402.38;;;-147.88;100.00
69198;BME280;56311;50.298;8.514;2022-07-12T02:22:16;62402.38;;;-147.88;100.00
69198;BME280;56311;50.298;8.514;2022-07-12T02:24:43;62402.38;;;-147.88;100.00
69198;BME280;56311;50.298;8.514;2022-07-12T02:27:10;62402.38;;;-147.88;100.00
69198;BME280;56311;50.298;8.514;2022-07-12T02:29:37;62402.38;;;-147.88;100.00
69198;BME280;56311;50.298;8.514;2022-07-12T02:32:06;62402.38;;;-147.88;100.00
69198;BME280;56311;50.298;8.514;2022-07-12T02:34:33;62402.38;;;-147.88;100.00
69198;BME280;56311;50.298;8.514;2022-07-12T02:37:00;62402.38;;;-147.88;100.00
69198;BME280;56311;50.298;8.514;2022-07-12T02:39:28;62402.38;;;-147.88;100.00
69198;BME280;56311;50.298;8.514;2022-07-12T02:41:55;62402.38;;;-147.88;100.00
69198;BME280;56311;50.298;8.514;2022-07-12T02:44:22;62402.38;;;-147.88;100.00
69198;BME280;56311;50.298;8.514;2022-07-12T02:46:49;62402.38;;;-147.88;100.00
69198;BME280;56311;50.298;8.514;2022-07-12T02:49:17;62402.38;;;-147.88;100.00
69198;BME280;56311;50.298;8.514;2022-07-12T02:51:44;62402.38;;;-147.88;100.00
69198;BME280;56311;50.298;8.514;2022-07-12T02:54:11;62402.38;;;-147.88;100.00
69198;BME280;56311;50.298;8.514;2022-07-12T02:56:38;62402.38;;;-147.88;100.00
69198;BME280;56311;50.298;8.514;2022-07-12T02:59:05;62402.38;;;-147.88;100.00
69198;BME280;56311;50.298;8.514;2022-07-12T03:01:32;62402.38;;;-147.88;100.00
69198;BME280;56311;50.298;8.514;2022-07-12T03:03:59;62402.38;;;-147.88;100.00
69198;BME280;56311;50.298;8.514;2022-07-12T03:06:28;62402.38;;;-147.88;100.00
69198;BME280;56311;50.298;8.514;2022-07-12T03:08:55;62402.38;;;-147.88;100.00
69198;BME280;56311;50.298;8.514;2022-07-12T03:11:22;62402.38;;;-147.88;100.00
69198;BME280;56311;50.298;8.514;2022-07-12T03:13:49;62402.38;;;-147.88;100.00
69198;BME280;56311;50.298;8.514;2022-07-12T03:16:16;62402.38;;;-147.88;100.00
69198;BME280;56311;50.298;8.514;2022-07-12T03:18:43;62402.38;;;-147.88;100.00
69198;BME280;56311;50.298;8.514;2022-07-12T03:21:10;62402.38;;;-147.88;100.00
69198;BME280;56311;50.298;8.514;2022-07-12T03:23:39;62402.38;;;-147.88;100.00
69198;BME280;56311;50.298;8.514;2022-07-12T03:26:07;62402.38;;;-147.88;100.00
69198;BME280;56311;50.298;8.514;2022-07-12T03:28:34;62402.38;;;-147.88;100.00
69198;BME280;56311;50.298;8.514;2022-07-12T03:31:01;62402.38;;;-147.88;100.00
69198;BME280;56311;50.298;8.514;2022-07-12T03:33:28;62402.38;;;-147.88;100.00
69198;BME280;56311;50.298;8.514;2022-07-12T03:35:59;62402.38;;;-147.88;100.00
69198;BME280;56311;50.298;8.514;2022-07-12T03:38:26;62402.38;;;-147.88;100.00
69198;BME280;56311;50.298;8.514;2022-07-12T03:40:55;62402.38;;;-147.88;100.00
69198;BME280;56311;50.298;8.514;2022-07-12T03:43:22;62402.38;;;-147.88;100.00
69198;BME280;56311;50.298;8.514;2022-07-12T03:45:49;62402.38;;;-147.88;100.00
69198;BME280;56311;50.298;8.514;2022-07-12T03:48:16;62402.38;;;-147.88;100.00
69198;BME280;56311;50.298;8.514;2022-07-12T03:50:43;62402.38;;;-147.88;100.00
69198;BME280;56311;50.298;8.514;2022-07-12T03:53:12;62402.38;;;-147.88;100.00
69198;BME280;56311;50.298;8.514;2022-07-12T03:55:39;62402.38;;;-147.88;100.00
69198;BME280;56311;50.298;8.514;2022-07-12T03:58:08;62402.38;;;-147.88;100.00
69198;BME280;56311;50.298;8.514;2022-07-12T04:00:35;62402.38;;;-147.88;100.00
69198;BME280;56311;50.298;8.514;2022-07-12T04:03:02;62402.38;;;-147.88;100.00
69198;BME280;56311;50.298;8.514;2022-07-12T04:05:29;62402.38;;;-147.88;100.00
69198;BME280;56311;50.298;8.514;2022-07-12T04:07:56;62402.38;;;-147.88;100.00
69198;BME280;56311;50.298;8.514;2022-07-12T04:10:23;62402.38;;;-147.88;100.00
69198;BME280;56311;50.298;8.514;2022-07-12T04:12:50;62402.38;;;-147.88;100.00
69198;BME280;56311;50.298;8.514;2022-07-12T04:15:19;62402.38;;;-147.88;100.00
69198;BME280;56311;50.298;8.514;2022-07-12T04:17:47;62402.38;;;-147.88;100.00
69198;BME280;56311;50.298;8.514;2022-07-12T04:20:14;62402.38;;;-147.88;100.00
69198;BME280;56311;50.298;8.514;2022-07-12T04:22:41;62402.38;;;-147.88;100.00
69198;BME280;56311;50.298;8.514;2022-07-12T04:25:09;62402.38;;;-147.88;100.00
69198;BME280;56311;50.298;8.514;2022-07-12T04:27:36;62402.38;;;-147.88;100.00
69198;BME280;56311;50.298;8.514;2022-07-12T04:30:04;62402.38;;;-147.88;100.00
69198;BME280;56311;50.298;8.514;2022-07-12T04:32:36;62402.38;;;-147.88;100.00
69198;BME280;56311;50.298;8.514;2022-07-12T04:35:20;62402.38;;;-147.88;100.00
69198;BME280;56311;50.298;8.514;2022-07-12T04:37:47;62402.38;;;-147.88;100.00
69198;BME280;56311;50.298;8.514;2022-07-12T04:40:14;62402.38;;;-147.88;100.00
69198;BME280;56311;50.298;8.514;2022-07-12T04:42:41;62402.38;;;-147.88;100.00
69198;BME280;56311;50.298;8.514;2022-07-12T04:45:08;62402.38;;;-147.88;100.00
69198;BME280;56311;50.298;8.514;2022-07-12T04:47:37;62402.38;;;-147.88;100.00
69198;BME280;56311;50.298;8.514;2022-07-12T04:50:05;62402.38;;;-147.88;100.00
69198;BME280;56311;50.298;8.514;2022-07-12T04:52:33;62402.38;;;-147.88;100.00
69198;BME280;56311;50.298;8.514;2022-07-12T04:55:00;62402.38;;;-147.88;100.00
69198;BME280;56311;50.298;8.514;2022-07-12T04:57:27;62402.38;;;-147.88;100.00
69198;BME280;56311;50.298;8.514;2022-07-12T04:59:54;62402.38;;;-147.88;100.00
69198;BME280;56311;50.298;8.514;2022-07-12T05:02:21;62402.38;;;-147.88;100.00
69198;BME280;56311;50.298;8.514;2022-07-12T05:04:50;62402.38;;;-147.88;100.00
69198;BME280;56311;50.298;8.514;2022-07-12T05:07:17;62402.38;;;-147.88;100.00
69198;BME280;56311;50.298;8.514;2022-07-12T05:09:43;62402.38;;;-147.88;100.00
69198;BME280;56311;50.298;8.514;2022-07-12T05:12:11;62402.38;;;-147.88;100.00
69198;BME280;56311;50.298;8.514;2022-07-12T05:14:37;62402.38;;;-147.88;100.00
69198;BME280;56311;50.298;8.514;2022-07-12T05:17:04;62402.38;;;-147.88;100.00
69198;BME280;56311;50.298;8.514;2022-07-12T05:19:32;62402.38;;;-147.88;100.00
69198;BME280;56311;50.298;8.514;2022-07-12T05:22:00;62402.38;;;-147.88;100.00
69198;BME280;56311;50.298;8.514;2022-07-12T05:24:28;62402.38;;;-147.88;100.00
69198;BME280;56311;50.298;8.514;2022-07-12T05:26:56;62402.38;;;-147.88;100.00
69198;BME280;56311;50.298;8.514;2022-07-12T05:29:23;62402.38;;;-147.88;100.00
69198;BME280;56311;50.298;8.514;2022-07-12T05:31:50;98637.28;;;14.57;99.04
69198;BME280;56311;50.298;8.514;2022-07-12T05:34:17;98639.81;;;14.72;98.95
69198;BME280;56311;50.298;8.514;2022-07-12T05:36:44;62402.38;;;-147.88;100.00
69198;BME280;56311;50.298;8.514;2022-07-12T05:39:12;62402.38;;;-147.88;100.00
69198;BME280;56311;50.298;8.514;2022-07-12T05:41:39;62402.38;;;-147.88;100.00
69198;BME280;56311;50.298;8.514;2022-07-12T05:44:06;62402.38;;;-147.88;100.00
69198;BME280;56311;50.298;8.514;2022-07-12T05:46:33;62402.38;;;-147.88;100.00
69198;BME280;56311;50.298;8.514;2022-07-12T05:49:01;98639.81;;;14.72;98.95
69198;BME280;56311;50.298;8.514;2022-07-12T05:51:28;98647.69;;;15.64;94.31
69198;BME280;56311;50.298;8.514;2022-07-12T05:54:15;98645.50;;;15.80;94.05
69198;BME280;56311;50.298;8.514;2022-07-12T05:56:42;62402.38;;;-147.88;100.00
69198;BME280;56311;50.298;8.514;2022-07-12T05:59:09;62402.38;;;-147.88;100.00
69198;BME280;56311;50.298;8.514;2022-07-12T06:01:36;62402.38;;;-147.88;100.00
69198;BME280;56311;50.298;8.514;2022-07-12T06:04:03;98644.34;;;16.42;91.59
69198;BME280;56311;50.298;8.514;2022-07-12T06:06:30;98648.38;;;16.59;91.57
69198;BME280;56311;50.298;8.514;2022-07-12T06:08:57;98650.59;;;16.70;90.09
69198;BME280;56311;50.298;8.514;2022-07-12T06:11:26;98654.94;;;16.71;89.89
69198;BME280;56311;50.298;8.514;2022-07-12T06:13:53;98658.47;;;16.72;89.34
69198;BME280;56311;50.298;8.514;2022-07-12T06:16:20;98664.94;;;16.76;89.31
69198;BME280;56311;50.298;8.514;2022-07-12T06:18:48;98661.41;;;16.76;88.77
69198;BME280;56311;50.298;8.514;2022-07-12T06:21:15;98656.00;;;16.84;89.18
69198;BME280;56311;50.298;8.514;2022-07-12T06:23:42;98650.94;;;16.92;88.73
69198;BME280;56311;50.298;8.514;2022-07-12T06:26:09;98666.72;;;17.09;88.22
69198;BME280;56311;50.298;8.514;2022-07-12T06:28:37;98659.59;;;17.22;87.81
69198;BME280;56311;50.298;8.514;2022-07-12T06:31:04;98655.94;;;17.26;87.54
69198;BME280;56311;50.298;8.514;2022-07-12T06:33:31;98662.38;;;17.30;87.11
69198;BME280;56311;50.298;8.514;2022-07-12T06:35:58;98669.47;;;17.31;86.64
69198;BME280;56311;50.298;8.514;2022-07-12T06:38:25;98668.31;;;17.46;86.71
69198;BME280;56311;50.298;8.514;2022-07-12T06:40:52;98672.53;;;17.53;86.24
69198;BME280;56311;50.298;8.514;2022-07-12T06:43:19;98664.00;;;17.77;85.61
69198;BME280;56311;50.298;8.514;2022-07-12T06:45:48;98669.16;;;18.01;84.35
69198;BME280;56311;50.298;8.514;2022-07-12T06:48:15;98673.22;;;18.12;83.69
69198;BME280;56311;50.298;8.514;2022-07-12T06:50:42;98677.69;;;17.77;83.43
69198;BME280;56311;50.298;8.514;2022-07-12T06:53:11;98680.19;;;17.42;85.91
69198;BME280;56311;50.298;8.514;2022-07-12T06:55:38;98676.59;;;17.18;87.11
69198;BME280;56311;50.298;8.514;2022-07-12T06:58:05;98681.31;;;17.04;87.67
69198;BME280;56311;50.298;8.514;2022-07-12T07:00:32;98687.16;;;17.11;88.38
69198;BME280;56311;50.298;8.514;2022-07-12T07:03:00;98681.34;;;17.49;86.78
69198;BME280;56311;50.298;8.514;2022-07-12T07:05:28;98680.31;;;17.91;84.31
69198;BME280;56311;50.298;8.514;2022-07-12T07:07:54;98678.81;;;17.98;82.25
69198;BME280;56311;50.298;8.514;2022-07-12T07:10:22;98679.09;;;18.28;81.42
69198;BME280;56311;50.298;8.514;2022-07-12T07:12:49;98670.16;;;18.54;80.10
69198;BME280;56311;50.298;8.514;2022-07-12T07:15:17;98676.50;;;18.81;79.04
69198;BME280;56311;50.298;8.514;2022-07-12T07:17:44;98685.75;;;18.94;78.35
69198;BME280;56311;50.298;8.514;2022-07-12T07:20:12;98682.97;;;18.85;77.12
69198;BME280;56311;50.298;8.514;2022-07-12T07:22:39;98681.75;;;19.18;77.11
69198;BME280;56311;50.298;8.514;2022-07-12T07:25:07;98680.28;;;19.38;74.70
69198;BME280;56311;50.298;8.514;2022-07-12T07:27:34;98674.78;;;19.47;73.59
69198;BME280;56311;50.298;8.514;2022-07-12T07:30:01;98691.09;;;19.34;73.04
69198;BME280;56311;50.298;8.514;2022-07-12T07:32:47;98685.75;;;19.55;72.97
69198;BME280;56311;50.298;8.514;2022-07-12T07:35:23;98679.91;;;19.92;71.95
69198;BME280;56311;50.298;8.514;2022-07-12T07:37:50;98688.97;;;19.84;70.87
69198;BME280;56311;50.298;8.514;2022-07-12T07:40:17;98691.50;;;20.07;69.94
69198;BME280;56311;50.298;8.514;2022-07-12T07:42:44;98680.69;;;20.01;68.72
69198;BME280;56311;50.298;8.514;2022-07-12T07:45:11;98680.19;;;19.99;69.12
69198;BME280;56311;50.298;8.514;2022-07-12T07:47:44;98678.47;;;19.77;69.01
69198;BME280;56311;50.298;8.514;2022-07-12T07:50:33;98678.47;;;19.77;69.01
69198;BME280;56311;50.298;8.514;2022-07-12T07:53:00;98685.22;;;20.36;67.20
69198;BME280;56311;50.298;8.514;2022-07-12T07:55:27;98674.75;;;20.29;66.18
69198;BME280;56311;50.298;8.514;2022-07-12T07:57:54;98674.50;;;20.52;66.13
69198;BME280;56311;50.298;8.514;2022-07-12T08:00:21;98672.88;;;20.51;64.99
69198;BME280;56311;50.298;8.514;2022-07-12T08:02:48;98670.78;;;20.48;65.93
69198;BME280;56311;50.298;8.514;2022-07-12T08:05:15;98673.81;;;20.25;68.30
69198;BME280;56311;50.298;8.514;2022-07-12T08:07:45;98667.00;;;19.93;69.34
69198;BME280;56311;50.298;8.514;2022-07-12T08:10:28;98677.81;;;19.71;70.30
69198;BME280;56311;50.298;8.514;2022-07-12T08:12:55;98668.13;;;19.65;69.77
69198;BME280;56311;50.298;8.514;2022-07-12T08:15:23;98671.00;;;19.78;69.74
69198;BME280;56311;50.298;8.514;2022-07-12T08:17:50;98672.97;;;19.77;69.74
69198;BME280;56311;50.298;8.514;2022-07-12T08:20:21;98672.00;;;19.82;69.20
69198;BME280;56311;50.298;8.514;2022-07-12T08:23:10;98681.47;;;20.02;70.14
69198;BME280;56311;50.298;8.514;2022-07-12T08:25:37;98675.81;;;20.85;66.59
69198;BME280;56311;50.298;8.514;2022-07-12T08:28:04;98682.16;;;21.40;63.33
69198;BME280;56311;50.298;8.514;2022-07-12T08:30:32;62402.38;;;-147.88;100.00
69198;BME280;56311;50.298;8.514;2022-07-12T08:32:59;62402.38;;;-147.88;100.00
69198;BME280;56311;50.298;8.514;2022-07-12T08:35:27;62402.38;;;-147.88;100.00
69198;BME280;56311;50.298;8.514;2022-07-12T08:37:54;62402.38;;;-147.88;100.00
69198;BME280;56311;50.298;8.514;2022-07-12T08:40:23;62402.38;;;-147.88;100.00
69198;BME280;56311;50.298;8.514;2022-07-12T08:42:50;62402.38;;;-147.88;100.00
69198;BME280;56311;50.298;8.514;2022-07-12T08:45:17;62402.38;;;-147.88;100.00
69198;BME280;56311;50.298;8.514;2022-07-12T08:47:44;98680.34;;;20.42;64.60
69198;BME280;56311;50.298;8.514;2022-07-12T08:50:13;98678.72;;;20.49;64.35
69198;BME280;56311;50.298;8.514;2022-07-12T08:52:42;98682.09;;;20.85;63.47
69198;BME280;56311;50.298;8.514;2022-07-12T08:55:20;98677.19;;;21.12;61.71
69198;BME280;56311;50.298;8.514;2022-07-12T08:57:50;98686.22;;;21.21;60.82
69198;BME280;56311;50.298;8.514;2022-07-12T09:00:18;98684.78;;;21.57;59.28
69198;BME280;56311;50.298;8.514;2022-07-12T09:02:47;98690.69;;;21.47;60.96
69198;BME280;56311;50.298;8.514;2022-07-12T09:05:16;98687.19;;;21.80;61.73
69198;BME280;56311;50.298;8.514;2022-07-12T09:07:44;98679.44;;;22.19;57.83
69198;BME280;56311;50.298;8.514;2022-07-12T09:10:11;62402.38;;;-147.88;100.00
69198;BME280;56311;50.298;8.514;2022-07-12T09:12:40;62402.38;;;-147.88;100.00
69198;BME280;56311;50.298;8.514;2022-07-12T09:15:16;98683.13;;;22.85;55.77
69198;BME280;56311;50.298;8.514;2022-07-12T09:17:55;98680.09;;;23.28;55.16
69198;BME280;56311;50.298;8.514;2022-07-12T09:20:26;98681.16;;;22.98;53.20
69198;BME280;56311;50.298;8.514;2022-07-12T09:22:56;98681.69;;;22.63;54.10
69198;BME280;56311;50.298;8.514;2022-07-12T09:25:23;98681.16;;;21.99;56.17
69198;BME280;56311;50.298;8.514;2022-07-12T09:27:52;98675.28;;;22.13;54.42
69198;BME280;56311;50.298;8.514;2022-07-12T09:30:22;98685.44;;;22.83;53.95
69198;BME280;56311;50.298;8.514;2022-07-12T09:32:57;98675.38;;;23.16;52.09
69198;BME280;56311;50.298;8.514;2022-07-12T09:35:43;98668.13;;;23.11;52.31
69198;BME280;56311;50.298;8.514;2022-07-12T09:38:34;98666.69;;;23.42;50.49
69198;BME280;56311;50.298;8.514;2022-07-12T09:41:02;98672.41;;;23.49;49.88
69198;BME280;56311;50.298;8.514;2022-07-12T09:43:29;98668.72;;;23.74;50.23
69198;BME280;56311;50.298;8.514;2022-07-12T09:45:58;98674.63;;;24.16;49.46
69198;BME280;56311;50.298;8.514;2022-07-12T09:48:26;98673.09;;;24.35;47.59
69198;BME280;56311;50.298;8.514;2022-07-12T09:50:56;98663.22;;;23.90;47.90
69198;BME280;56311;50.298;8.514;2022-07-12T09:53:27;98656.09;;;23.89;48.17
69198;BME280;56311;50.298;8.514;2022-07-12T09:55:55;98662.81;;;24.04;47.57
69198;BME280;56311;50.298;8.514;2022-07-12T09:58:27;98662.41;;;23.73;47.58
69198;BME280;56311;50.298;8.514;2022-07-12T10:00:59;98663.66;;;23.76;48.47
69198;BME280;56311;50.298;8.514;2022-07-12T10:03:30;98663.09;;;23.70;48.25
69198;BME280;56311;50.298;8.514;2022-07-12T10:06:00;98663.06;;;23.26;49.34
69198;BME280;56311;50.298;8.514;2022-07-12T10:08:29;98665.59;;;24.20;48.19
69198;BME280;56311;50.298;8.514;2022-07-12T10:10:57;98668.53;;;24.11;46.54
69198;BME280;56311;50.298;8.514;2022-07-12T10:13:25;98673.69;;;24.12;46.50
69198;BME280;56311;50.298;8.514;2022-07-12T10:15:59;98677.44;;;24.04;46.24
69198;BME280;56311;50.298;8.514;2022-07-12T10:18:28;98682.91;;;24.16;45.98
69198;BME280;56311;50.298;8.514;2022-07-12T10:20:55;98689.56;;;24.63;45.99
69198;BME280;56311;50.298;8.514;2022-07-12T10:23:34;98689.06;;;25.09;44.36
69198;BME280;56311;50.298;8.514;2022-07-12T10:28:59;62402.38;;;-147.88;100.00
69198;BME280;56311;50.298;8.514;2022-07-12T10:31:30;62402.38;;;-147.88;100.00
69198;BME280;56311;50.298;8.514;2022-07-12T10:34:14;62402.38;;;-147.88;100.00
69198;BME280;56311;50.298;8.514;2022-07-12T10:37:09;62402.38;;;-147.88;100.00
69198;BME280;56311;50.298;8.514;2022-07-12T10:40:12;62402.38;;;-147.88;100.00
69198;BME280;56311;50.298;8.514;2022-07-12T10:42:40;62402.38;;;-147.88;100.00
69198;BME280;56311;50.298;8.514;2022-07-12T10:45:12;62402.38;;;-147.88;100.00
69198;BME280;56311;50.298;8.514;2022-07-12T10:47:54;62402.38;;;-147.88;100.00
69198;BME280;56311;50.298;8.514;2022-07-12T10:50:51;62402.38;;;-147.88;100.00
69198;BME280;56311;50.298;8.514;2022-07-12T10:53:31;62402.38;;;-147.88;100.00
69198;BME280;56311;50.298;8.514;2022-07-12T10:58:44;98661.84;;;26.94;40.32
69198;BME280;56311;50.298;8.514;2022-07-12T11:01:13;98662.44;;;27.07;40.08
69198;BME280;56311;50.298;8.514;2022-07-12T11:03:44;98666.38;;;27.06;39.41
69198;BME280;56311;50.298;8.514;2022-07-12T11:06:12;98660.41;;;27.34;38.75
69198;BME280;56311;50.298;8.514;2022-07-12T11:11:34;98646.47;;;26.46;39.31
69198;BME280;56311;50.298;8.514;2022-07-12T11:14:02;98642.91;;;26.46;39.79
69198;BME280;56311;50.298;8.514;2022-07-12T11:16:29;98641.31;;;26.72;39.52
69198;BME280;56311;50.298;8.514;2022-07-12T11:18:58;98648.03;;;26.44;39.35
69198;BME280;56311;50.298;8.514;2022-07-12T11:21:27;98647.91;;;26.36;39.82
69198;BME280;56311;50.298;8.514;2022-07-12T11:23:54;98644.19;;;26.52;37.76
69198;BME280;56311;50.298;8.514;2022-07-12T11:26:22;98646.94;;;26.75;37.40
69198;BME280;56311;50.298;8.514;2022-07-12T11:28:49;98647.66;;;27.29;34.90
69198;BME280;56311;50.298;8.514;2022-07-12T11:31:18;98635.94;;;27.47;35.00
69198;BME280;56311;50.298;8.514;2022-07-12T11:33:48;98636.47;;;27.98;37.36
69198;BME280;56311;50.298;8.514;2022-07-12T11:36:17;98627.75;;;27.99;34.29
69198;BME280;56311;50.298;8.514;2022-07-12T11:38:45;98624.88;;;27.51;34.53
69198;BME280;56311;50.298;8.514;2022-07-12T11:41:14;98619.91;;;27.33;34.86
69198;BME280;56311;50.298;8.514;2022-07-12T11:43:42;98625.25;;;27.49;35.09
69198;BME280;56311;50.298;8.514;2022-07-12T11:46:10;98621.88;;;28.08;33.79
69198;BME280;56311;50.298;8.514;2022-07-12T11:48:37;98618.72;;;28.09;33.08
69198;BME280;56311;50.298;8.514;2022-07-12T11:51:06;98622.88;;;28.34;35.28
69198;BME280;56311;50.298;8.514;2022-07-12T11:53:36;62402.38;;;-147.88;100.00
69198;BME280;56311;50.298;8.514;2022-07-12T11:56:05;62402.38;;;-147.88;100.00
69198;BME280;56311;50.298;8.514;2022-07-12T11:58:33;62402.38;;;-147.88;100.00
69198;BME280;56311;50.298;8.514;2022-07-12T12:01:05;62402.38;;;-147.88;100.00
69198;BME280;56311;50.298;8.514;2022-07-12T12:03:42;62402.38;;;-147.88;100.00
69198;BME280;56311;50.298;8.514;2022-07-12T12:06:11;62402.38;;;-147.88;100.00
69198;BME280;56311;50.298;8.514;2022-07-12T12:08:39;98611.50;;;28.05;32.66
69198;BME280;56311;50.298;8.514;2022-07-12T12:11:06;98606.84;;;28.72;32.06
69198;BME280;56311;50.298;8.514;2022-07-12T12:13:33;98607.28;;;28.74;31.61
69198;BME280;56311;50.298;8.514;2022-07-12T12:16:02;98604.84;;;28.72;31.34
69198;BME280;56311;50.298;8.514;2022-07-12T12:18:32;98603.75;;;28.88;32.08
69198;BME280;56311;50.298;8.514;2022-07-12T12:21:03;98599.41;;;28.94;29.97
69198;BME280;56311;50.298;8.514;2022-07-12T12:23:32;62402.38;;;-147.88;100.00
69198;BME280;56311;50.298;8.514;2022-07-12T12:26:16;62402.38;;;-147.88;100.00
69198;BME280;56311;50.298;8.514;2022-07-12T12:28:44;62402.38;;;-147.88;100.00
69198;BME280;56311;50.298;8.514;2022-07-12T12:31:12;62402.38;;;-147.88;100.00
69198;BME280;56311;50.298;8.514;2022-07-12T12:33:41;62402.38;;;-147.88;100.00
69198;BME280;56311;50.298;8.514;2022-07-12T12:36:16;62402.38;;;-147.88;100.00
69198;BME280;56311;50.298;8.514;2022-07-12T12:38:44;62402.38;;;-147.88;100.00
69198;BME280;56311;50.298;8.514;2022-07-12T12:41:13;62402.38;;;-147.88;100.00
69198;BME280;56311;50.298;8.514;2022-07-12T12:43:41;62402.38;;;-147.88;100.00
69198;BME280;56311;50.298;8.514;2022-07-12T12:46:08;98586.56;;;29.99;29.61
69198;BME280;56311;50.298;8.514;2022-07-12T12:48:36;98576.59;;;29.98;30.23
69198;BME280;56311;50.298;8.514;2022-07-12T12:51:05;98568.59;;;30.22;30.20
69198;BME280;56311;50.298;8.514;2022-07-12T12:53:35;98573.34;;;30.43;28.80
69198;BME280;56311;50.298;8.514;2022-07-12T12:56:06;98579.72;;;29.46;29.15
69198;BME280;56311;50.298;8.514;2022-07-12T12:58:37;98581.75;;;29.89;29.51
69198;BME280;56311;50.298;8.514;2022-07-12T13:01:05;98577.75;;;30.37;29.63
69198;BME280;56311;50.298;8.514;2022-07-12T13:03:32;98573.34;;;30.58;28.88